createdAt,value
2022-09-06T00:01:58.393Z,100341.94
2022-09-06T00:04:26.631Z,100329.16
2022-09-06T00:06:54.784Z,100329.38
2022-09-06T00:09:22.859Z,100330.13
2022-09-06T00:11:51.250Z,100324.63
2022-09-06T00:14:19.305Z,100325.19
2022-09-06T00:16:47.446Z,100323.44
2022-09-06T00:19:19.487Z,100318.03
2022-09-06T00:21:47.616Z,100322.47
2022-09-06T00:24:16.315Z,100327.88
2022-09-06T00:26:44.301Z,100330.78
2022-09-06T00:29:12.668Z,100332.84
2022-09-06T00:31:40.722Z,100331.31
2022-09-06T00:34:09.013Z,100325.38
2022-09-06T00:36:38.981Z,100325.25
2022-09-06T00:39:07.205Z,100320.81
2022-09-06T00:41:41.069Z,100325.38
2022-09-06T00:44:09.276Z,100322.75
2022-09-06T00:46:39.737Z,100324.31
2022-09-06T00:49:13.744Z,100323.09
2022-09-06T00:51:45.487Z,100330.13
2022-09-06T00:54:18.635Z,100326.47
2022-09-06T00:56:47.648Z,100334.16
2022-09-06T00:59:16.906Z,100343.91
2022-09-06T01:01:45.203Z,100341.94
2022-09-06T01:04:14.209Z,100341.28
2022-09-06T01:06:58.510Z,100350.13
2022-09-06T01:09:42.091Z,100361.63
2022-09-06T01:12:27.265Z,100363.03
2022-09-06T01:15:08.921Z,100366.59
2022-09-06T01:17:51.463Z,100394.03
2022-09-06T01:20:46.513Z,100483.22
2022-09-06T01:23:56.284Z,100472.53
2022-09-06T01:26:54.743Z,100480.50
2022-09-06T01:29:34.034Z,100475.13
2022-09-06T01:32:08.867Z,100482.88
2022-09-06T01:34:43.504Z,100485.63
2022-09-06T01:37:17.468Z,100472.00
2022-09-06T01:39:45.504Z,100467.16
2022-09-06T01:42:19.225Z,100475.63
2022-09-06T01:44:53.796Z,100477.50
2022-09-06T01:47:39.742Z,100460.88
2022-09-06T01:50:28.660Z,100464.06
2022-09-06T01:53:05.821Z,100461.91
2022-09-06T01:55:40.290Z,100465.19
2022-09-06T01:58:37.929Z,100439.78
2022-09-06T02:01:21.213Z,100421.34
2022-09-06T02:03:56.143Z,100401.13
2022-09-06T02:06:30.096Z,100382.81
2022-09-06T02:09:07.459Z,100366.78
2022-09-06T02:11:40.738Z,100362.69
2022-09-06T02:14:10.764Z,100372.28
2022-09-06T02:16:44.592Z,100376.69
2022-09-06T02:19:18.990Z,100398.34
2022-09-06T02:21:53.345Z,100393.28
2022-09-06T02:24:27.162Z,100389.19
2022-09-06T02:26:55.571Z,100404.13
2022-09-06T02:29:23.977Z,100412.47
2022-09-06T02:31:57.379Z,100418.31
2022-09-06T02:34:27.935Z,100422.03
2022-09-06T02:36:57.040Z,100427.53
2022-09-06T02:39:25.715Z,100427.63
2022-09-06T02:41:59.801Z,100412.47
2022-09-06T02:44:29.998Z,100414.53
2022-09-06T02:47:01.292Z,100412.16
2022-09-06T02:49:31.942Z,100396.00
2022-09-06T02:52:00.097Z,100384.97
2022-09-06T02:54:28.100Z,100396.47
2022-09-06T02:56:56.169Z,100407.19
2022-09-06T02:59:24.136Z,100422.31
2022-09-06T03:01:52.232Z,100424.66
2022-09-06T03:04:21.584Z,100420.47
2022-09-06T03:09:41.491Z,100383.69
2022-09-06T03:12:11.982Z,100384.38
2022-09-06T03:14:41.228Z,100378.50
2022-09-06T03:17:11.439Z,100368.28
2022-09-06T03:19:39.485Z,100363.28
2022-09-06T03:22:07.450Z,100375.78
2022-09-06T03:24:35.502Z,100387.25
2022-09-06T03:27:04.954Z,100368.66
2022-09-06T03:29:33.210Z,100352.88
2022-09-06T03:32:01.270Z,100349.81
2022-09-06T03:34:29.252Z,100376.75
2022-09-06T03:36:57.274Z,100377.53
2022-09-06T03:39:25.256Z,100373.09
2022-09-06T03:41:53.471Z,100369.91
2022-09-06T03:44:25.348Z,100362.81
2022-09-06T03:46:53.352Z,100355.78
2022-09-06T03:49:21.307Z,100349.00
2022-09-06T03:51:49.300Z,100356.03
2022-09-06T03:54:17.348Z,100350.00
2022-09-06T03:56:45.306Z,100346.13
2022-09-06T03:59:13.314Z,100330.31
2022-09-06T04:01:42.788Z,100329.66
2022-09-06T04:04:10.871Z,100334.88
2022-09-06T04:06:38.825Z,100343.03
2022-09-06T04:09:08.926Z,100343.16
2022-09-06T04:11:39.205Z,100339.97
2022-09-06T04:14:09.652Z,100345.03
2022-09-06T04:16:37.827Z,100334.53
2022-09-06T04:19:07.858Z,100338.59
2022-09-06T04:21:38.740Z,100342.41
2022-09-06T04:24:09.072Z,100346.25
2022-09-06T04:26:37.254Z,100340.19
2022-09-06T04:29:07.566Z,100353.94
2022-09-06T04:31:35.561Z,100349.53
2022-09-06T04:34:03.647Z,100357.78
2022-09-06T04:36:33.189Z,100359.03
2022-09-06T04:39:01.258Z,100356.50
2022-09-06T04:41:29.195Z,100354.50
2022-09-06T04:43:57.309Z,100352.66
2022-09-06T04:46:29.859Z,100351.25
2022-09-06T04:48:59.084Z,100342.09
2022-09-06T04:51:29.661Z,100342.16
2022-09-06T04:54:01.161Z,100335.75
2022-09-06T04:56:32.180Z,100337.63
2022-09-06T04:59:00.277Z,100350.16
2022-09-06T05:01:28.220Z,100345.81
2022-09-06T05:03:57.082Z,100352.09
2022-09-06T05:06:26.291Z,100347.81
2022-09-06T05:08:54.270Z,100346.09
2022-09-06T05:11:23.598Z,100348.97
2022-09-06T05:13:51.635Z,100351.75
2022-09-06T05:16:19.715Z,100348.00
2022-09-06T05:18:47.830Z,100350.50
2022-09-06T05:21:15.835Z,100351.16
2022-09-06T05:23:47.605Z,100355.56
2022-09-06T05:26:17.750Z,100350.28
2022-09-06T05:28:50.037Z,100352.69
2022-09-06T05:31:29.444Z,100354.34
2022-09-06T05:33:58.437Z,100364.16
2022-09-06T05:36:27.427Z,100374.78
2022-09-06T05:38:58.685Z,100366.38
2022-09-06T05:41:27.756Z,100369.09
2022-09-06T05:43:57.132Z,100371.03
2022-09-06T05:46:26.420Z,100383.78
2022-09-06T05:48:55.297Z,100392.16
2022-09-06T05:51:23.310Z,100389.09
2022-09-06T05:53:51.522Z,100394.97
2022-09-06T05:56:19.927Z,100386.50
2022-09-06T05:58:47.934Z,100406.25
2022-09-06T06:01:19.022Z,100406.34
2022-09-06T06:03:54.017Z,100415.31
2022-09-06T06:06:23.135Z,100419.28
2022-09-06T06:08:51.270Z,100418.25
2022-09-06T06:11:19.318Z,100422.38
2022-09-06T06:13:47.420Z,100415.03
2022-09-06T06:16:18.731Z,100415.59
2022-09-06T06:18:51.707Z,100415.31
2022-09-06T06:21:22.165Z,100413.91
2022-09-06T06:23:52.974Z,100426.31
2022-09-06T06:26:23.633Z,100427.22
2022-09-06T06:28:53.304Z,100421.94
2022-09-06T06:31:25.090Z,100428.72
2022-09-06T06:33:53.130Z,100433.00
2022-09-06T06:36:23.279Z,100442.91
2022-09-06T06:38:55.255Z,100432.34
2022-09-06T06:41:25.248Z,100446.16
2022-09-06T06:43:57.485Z,100446.44
2022-09-06T06:46:33.473Z,100443.28
2022-09-06T06:49:02.148Z,100441.34
2022-09-06T06:51:32.005Z,100450.06
2022-09-06T06:54:00.314Z,100444.38
2022-09-06T06:56:30.470Z,100451.19
2022-09-06T06:59:02.847Z,100452.75
2022-09-06T07:01:34.312Z,100454.53
2022-09-06T07:04:02.739Z,100451.19
2022-09-06T07:09:21.062Z,100459.84
2022-09-06T07:11:49.891Z,100455.22
2022-09-06T07:14:18.516Z,100451.53
2022-09-06T07:16:58.309Z,100450.00
2022-09-06T07:22:14.955Z,100454.59
2022-09-06T07:24:42.915Z,100446.47
2022-09-06T07:29:59.383Z,100447.00
2022-09-06T07:32:35.352Z,100442.25
2022-09-06T07:35:06.862Z,100448.38
2022-09-06T07:37:35.578Z,100451.81
2022-09-06T07:40:04.564Z,100453.44
2022-09-06T07:42:36.254Z,100448.09
2022-09-06T07:45:05.117Z,100452.41
2022-09-06T07:53:15.829Z,100462.16
2022-09-06T07:55:54.257Z,100454.63
2022-09-06T07:58:27.283Z,100462.78
2022-09-06T08:00:55.324Z,100462.97
2022-09-06T08:03:24.824Z,100456.91
2022-09-06T08:06:10.558Z,100444.41
2022-09-06T08:10:41.087Z,100443.69
2022-09-06T08:13:09.244Z,100444.94
2022-09-06T08:15:41.525Z,100434.63
2022-09-06T08:18:12.980Z,100455.09
2022-09-06T08:20:43.492Z,100454.63
2022-09-06T08:23:11.805Z,100459.94
2022-09-06T08:25:43.998Z,100468.13
2022-09-06T08:28:12.059Z,100466.09
2022-09-06T08:30:40.788Z,100465.13
2022-09-06T08:33:08.942Z,100458.47
2022-09-06T08:35:39.687Z,100459.44
2022-09-06T08:38:07.882Z,100457.16
2022-09-06T08:40:36.288Z,100455.16
2022-09-06T08:43:05.860Z,100467.81
2022-09-06T08:45:34.216Z,100467.81
2022-09-06T08:48:02.469Z,100457.31
2022-09-06T08:50:32.248Z,100449.78
2022-09-06T08:53:23.314Z,100443.25
2022-09-06T08:55:56.905Z,100444.19
2022-09-06T08:58:38.271Z,100432.06
2022-09-06T09:01:16.111Z,100433.09
2022-09-06T09:03:45.157Z,100437.28
2022-09-06T09:06:16.027Z,100439.81
2022-09-06T09:08:48.875Z,100440.06
2022-09-06T09:11:20.269Z,100423.41
2022-09-06T09:13:56.495Z,100427.03
2022-09-06T09:16:25.372Z,100434.16
2022-09-06T09:18:56.113Z,100432.78
2022-09-06T09:21:30.510Z,100431.75
2022-09-06T09:24:03.002Z,100417.28
2022-09-06T09:26:33.882Z,100413.25
2022-09-06T09:29:08.573Z,100412.69
2022-09-06T09:31:39.127Z,100423.09
2022-09-06T09:34:12.362Z,100416.94
2022-09-06T09:36:41.041Z,100422.78
2022-09-06T09:39:13.204Z,100409.47
2022-09-06T09:41:43.787Z,100410.41
2022-09-06T09:44:19.976Z,100410.06
2022-09-06T09:46:50.712Z,100408.31
2022-09-06T09:49:30.963Z,100408.53
2022-09-06T09:52:08.353Z,100402.38
2022-09-06T09:54:38.359Z,100393.88
2022-09-06T09:57:11.886Z,100396.94
2022-09-06T09:59:47.245Z,100395.25
2022-09-06T10:02:20.510Z,100394.63
2022-09-06T10:04:51.585Z,100390.84
2022-09-06T10:07:21.484Z,100393.75
2022-09-06T10:09:58.118Z,100388.78
2022-09-06T10:12:31.118Z,100389.06
2022-09-06T10:15:06.933Z,100380.19
2022-09-06T10:17:37.839Z,100385.63
2022-09-06T10:20:09.196Z,100391.63
2022-09-06T10:22:48.834Z,100385.44
2022-09-06T10:25:39.466Z,100387.06
2022-09-06T10:28:29.235Z,100392.78
2022-09-06T10:31:08.990Z,100395.94
2022-09-06T10:33:54.072Z,100394.94
2022-09-06T10:36:29.647Z,100387.78
2022-09-06T10:39:06.255Z,100381.22
2022-09-06T10:41:49.316Z,100383.16
2022-09-06T10:44:36.241Z,100371.81
2022-09-06T10:47:12.353Z,100371.66
2022-09-06T10:49:45.600Z,100371.72
2022-09-06T10:52:21.099Z,100374.53
2022-09-06T10:54:49.786Z,100366.13
2022-09-06T11:00:13.774Z,100362.28
2022-09-06T11:05:45.405Z,100362.28
2022-09-06T11:11:20.890Z,100352.09
2022-09-06T11:13:49.197Z,100355.66
2022-09-06T11:16:22.399Z,100359.88
2022-09-06T11:18:56.416Z,100355.69
2022-09-06T11:22:04.507Z,100346.22
2022-09-06T11:24:46.824Z,100349.38
2022-09-06T11:27:24.136Z,100347.38
2022-09-06T11:29:56.885Z,100343.88
2022-09-06T11:32:34.015Z,100344.28
2022-09-06T11:35:07.438Z,100336.78
2022-09-06T11:37:39.489Z,100330.38
2022-09-06T11:40:27.014Z,100336.75
2022-09-06T11:43:16.669Z,100337.81
2022-09-06T11:45:50.501Z,100341.41
2022-09-06T11:48:35.175Z,100334.91
2022-09-06T11:51:10.964Z,100334.19
2022-09-06T11:54:07.074Z,100329.09
2022-09-06T11:56:42.022Z,100329.03
2022-09-06T11:59:23.505Z,100329.53
2022-09-06T12:02:01.694Z,100328.03
2022-09-06T12:05:07.346Z,100322.97
2022-09-06T12:07:38.454Z,100325.75
2022-09-06T12:10:39.871Z,100315.34
2022-09-06T12:13:42.718Z,100313.44
2022-09-06T12:16:12.233Z,100314.06
2022-09-06T12:19:04.515Z,100300.97
2022-09-06T12:21:46.308Z,100302.28
2022-09-06T12:24:47.186Z,100307.91
2022-09-06T12:27:18.511Z,100305.13
2022-09-06T12:29:54.871Z,100303.31
2022-09-06T12:32:31.697Z,100289.06
2022-09-06T12:37:58.503Z,100289.06
2022-09-06T12:40:30.366Z,100282.31
2022-09-06T12:43:00.281Z,100283.69
2022-09-06T12:45:28.324Z,100281.41
2022-09-06T12:48:09.065Z,100280.78
2022-09-06T12:50:37.675Z,100274.16
2022-09-06T12:53:23.645Z,100269.13
2022-09-06T12:56:03.903Z,100256.75
2022-09-06T12:58:36.992Z,100255.22
2022-09-06T13:01:12.586Z,100257.00
2022-09-06T13:03:46.239Z,100252.13
2022-09-06T13:06:23.340Z,100248.28
2022-09-06T13:11:46.270Z,100252.00
2022-09-06T13:14:21.303Z,100242.94
2022-09-06T13:16:50.546Z,100238.00
2022-09-06T13:19:33.142Z,100235.19
2022-09-06T13:22:05.365Z,100234.75
2022-09-06T13:24:46.599Z,100236.06
2022-09-06T13:27:33.438Z,100233.19
2022-09-06T13:30:03.710Z,100217.53
2022-09-06T13:32:32.600Z,100221.63
2022-09-06T13:35:01.823Z,100220.13
2022-09-06T13:37:33.693Z,100216.88
2022-09-06T13:40:06.492Z,100211.59
2022-09-06T13:42:37.227Z,100213.16
2022-09-06T13:45:23.754Z,100213.38
2022-09-06T13:47:59.939Z,100212.00
2022-09-06T13:50:42.822Z,100213.81
2022-09-06T13:53:11.114Z,100209.84
2022-09-06T13:55:41.579Z,100213.72
2022-09-06T13:58:10.886Z,100205.50
2022-09-06T14:00:41.333Z,100199.16
2022-09-06T14:03:21.746Z,100201.22
2022-09-06T14:05:50.143Z,100198.09
2022-09-06T14:08:21.573Z,100199.47
2022-09-06T14:10:52.988Z,100193.09
2022-09-06T14:13:22.800Z,100195.09
2022-09-06T14:15:51.693Z,100192.19
2022-09-06T14:18:19.871Z,100186.03
2022-09-06T14:20:53.309Z,100188.53
2022-09-06T14:23:21.574Z,100183.06
2022-09-06T14:25:50.456Z,100181.63
2022-09-06T14:28:18.504Z,100189.03
2022-09-06T14:30:48.163Z,100179.25
2022-09-06T14:33:16.190Z,100172.91
2022-09-06T14:35:44.524Z,100169.66
2022-09-06T14:38:12.609Z,100157.72
2022-09-06T14:40:44.283Z,100172.50
2022-09-06T14:43:12.485Z,100174.22
2022-09-06T14:45:40.811Z,100165.38
2022-09-06T14:48:13.358Z,100170.59
2022-09-06T14:50:41.755Z,100156.84
2022-09-06T14:53:30.009Z,100155.81
2022-09-06T14:56:03.160Z,100157.66
2022-09-06T14:58:32.182Z,100156.59
2022-09-06T15:01:08.700Z,100159.44
2022-09-06T15:03:38.226Z,100158.56
2022-09-06T15:06:07.906Z,100152.31
2022-09-06T15:08:36.391Z,100150.97
2022-09-06T15:11:06.357Z,100150.75
2022-09-06T15:13:37.863Z,100141.22
2022-09-06T15:16:07.675Z,100159.41
2022-09-06T15:18:36.244Z,100163.09
2022-09-06T15:21:12.440Z,100166.78
2022-09-06T15:23:41.046Z,100155.06
2022-09-06T15:26:10.217Z,100160.41
2022-09-06T15:28:42.598Z,100139.50
2022-09-06T15:31:11.498Z,100150.13
2022-09-06T15:33:41.245Z,100150.34
2022-09-06T15:36:13.810Z,100151.72
2022-09-06T15:38:44.139Z,100173.41
2022-09-06T15:41:16.079Z,100164.31
2022-09-06T15:43:48.139Z,100169.13
2022-09-06T15:46:21.191Z,100169.44
2022-09-06T15:48:54.078Z,100169.22
2022-09-06T15:51:23.598Z,100168.34
2022-09-06T15:53:54.186Z,100147.13
2022-09-06T15:56:24.661Z,100146.56
2022-09-06T15:58:53.089Z,100142.38
2022-09-06T16:01:23.249Z,100143.72
2022-09-06T16:03:53.393Z,100123.69
2022-09-06T16:09:00.177Z,100128.84
2022-09-06T16:11:32.610Z,100126.97
2022-09-06T16:14:01.382Z,100125.44
2022-09-06T16:16:32.916Z,100126.31
2022-09-06T16:19:01.646Z,100120.63
2022-09-06T16:21:32.770Z,100114.84
2022-09-06T16:24:03.880Z,100115.69
2022-09-06T16:26:41.978Z,100112.81
2022-09-06T16:29:12.407Z,100105.78
2022-09-06T16:31:41.016Z,100098.59
2022-09-06T16:34:10.289Z,100090.03
2022-09-06T16:36:40.718Z,100099.25
2022-09-06T16:39:09.588Z,100094.81
2022-09-06T16:41:41.004Z,100105.16
2022-09-06T16:44:10.061Z,100112.34
2022-09-06T16:46:40.014Z,100114.06
2022-09-06T16:49:08.532Z,100120.03
2022-09-06T16:51:37.377Z,100110.50
2022-09-06T16:54:06.913Z,100112.41
2022-09-06T16:56:35.955Z,100117.38
2022-09-06T16:59:06.490Z,100129.03
2022-09-06T17:01:38.796Z,100117.91
2022-09-06T17:04:09.599Z,100120.31
2022-09-06T17:06:44.255Z,100119.63
2022-09-06T17:09:15.824Z,100115.81
2022-09-06T17:11:47.763Z,100112.38
2022-09-06T17:14:18.948Z,100120.53
2022-09-06T17:17:08.850Z,100123.38
2022-09-06T17:19:42.674Z,100125.47
2022-09-06T17:22:11.710Z,100134.41
2022-09-06T17:24:41.757Z,100144.19
2022-09-06T17:27:10.070Z,100145.19
2022-09-06T17:29:40.767Z,100154.63
2022-09-06T17:32:10.545Z,100148.41
2022-09-06T17:34:39.410Z,100147.72
2022-09-06T17:37:09.978Z,100147.66
2022-09-06T17:39:38.883Z,100146.41
2022-09-06T17:42:09.137Z,100141.69
2022-09-06T17:44:37.776Z,100148.22
2022-09-06T17:47:13.084Z,100158.75
2022-09-06T17:49:44.305Z,100150.69
2022-09-06T17:52:13.983Z,100155.47
2022-09-06T17:54:42.851Z,100159.88
2022-09-06T17:57:12.568Z,100163.34
2022-09-06T17:59:42.774Z,100149.50
2022-09-06T18:02:13.427Z,100137.50
2022-09-06T18:04:41.520Z,100136.13
2022-09-06T18:07:12.034Z,100141.16
2022-09-06T18:12:41.187Z,100139.59
2022-09-06T18:15:10.225Z,100128.84
2022-09-06T18:17:43.110Z,100133.00
2022-09-06T18:20:11.796Z,100135.59
2022-09-06T18:22:40.034Z,100136.72
2022-09-06T18:25:09.609Z,100143.16
2022-09-06T18:27:38.067Z,100135.25
2022-09-06T18:30:14.754Z,100146.09
2022-09-06T18:32:45.762Z,100136.47
2022-09-06T18:35:13.890Z,100140.03
2022-09-06T18:37:42.210Z,100135.56
2022-09-06T18:40:13.306Z,100140.66
2022-09-06T18:42:45.206Z,100151.31
2022-09-06T18:45:14.851Z,100156.19
2022-09-06T18:47:45.608Z,100165.16
2022-09-06T18:50:13.763Z,100165.31
2022-09-06T18:52:42.113Z,100149.56
2022-09-06T18:55:10.522Z,100148.97
2022-09-06T18:57:38.822Z,100158.91
2022-09-06T19:00:08.435Z,100148.44
2022-09-06T19:02:37.972Z,100153.56
2022-09-06T19:05:06.855Z,100155.06
2022-09-06T19:07:37.466Z,100153.72
2022-09-06T19:10:08.563Z,100151.53
2022-09-06T19:12:37.278Z,100157.34
2022-09-06T19:15:06.059Z,100146.88
2022-09-06T19:17:34.593Z,100133.56
2022-09-06T19:20:04.937Z,100142.72
2022-09-06T19:22:33.760Z,100140.38
2022-09-06T19:25:07.338Z,100137.06
2022-09-06T19:27:35.654Z,100132.56
2022-09-06T19:30:04.196Z,100132.41
2022-09-06T19:32:32.508Z,100124.16
2022-09-06T19:35:01.411Z,100125.53
2022-09-06T19:37:33.492Z,100123.44
2022-09-06T19:40:05.028Z,100123.94
2022-09-06T19:42:33.419Z,100113.84
2022-09-06T19:45:01.463Z,100111.50
2022-09-06T19:47:29.747Z,100122.81
2022-09-06T19:49:57.854Z,100106.94
2022-09-06T19:52:28.532Z,100096.72
2022-09-06T19:54:58.007Z,100103.13
2022-09-06T19:57:26.860Z,100097.84
2022-09-06T19:59:55.022Z,100090.94
2022-09-06T20:02:28.375Z,100079.47
2022-09-06T20:04:56.544Z,100078.03
2022-09-06T20:07:27.345Z,100071.75
2022-09-06T20:09:56.242Z,100070.50
2022-09-06T20:12:29.782Z,100064.00
2022-09-06T20:15:03.029Z,100060.91
2022-09-06T20:17:34.371Z,100053.50
2022-09-06T20:20:05.601Z,100065.09
2022-09-06T20:22:33.904Z,100072.88
2022-09-06T20:25:01.957Z,100073.34
2022-09-06T20:27:32.120Z,100065.84
2022-09-06T20:30:01.356Z,100072.84
2022-09-06T20:32:34.363Z,100067.28
2022-09-06T20:35:04.944Z,100060.28
2022-09-06T20:37:33.192Z,100066.69
2022-09-06T20:40:01.357Z,100067.03
2022-09-06T20:42:30.977Z,100045.13
2022-09-06T20:44:59.118Z,100075.78
2022-09-06T20:47:29.493Z,100067.88
2022-09-06T20:49:57.813Z,100082.13
2022-09-06T20:52:28.002Z,100073.31
2022-09-06T20:54:56.117Z,100065.81
2022-09-06T20:57:26.700Z,100069.16
2022-09-06T20:59:56.426Z,100073.09
2022-09-06T21:02:26.788Z,100061.19
2022-09-06T21:04:55.022Z,100058.91
2022-09-06T21:07:23.014Z,100054.19
2022-09-06T21:09:51.750Z,100062.88
2022-09-06T21:12:19.780Z,100057.09
2022-09-06T21:14:50.438Z,100048.34
2022-09-06T21:17:19.848Z,100050.63
2022-09-06T21:19:47.915Z,100044.09
2022-09-06T21:22:18.040Z,100043.69
2022-09-06T21:24:46.254Z,100044.16
2022-09-06T21:27:14.289Z,100041.09
2022-09-06T21:29:42.526Z,100040.94
2022-09-06T21:32:13.346Z,100054.16
2022-09-06T21:34:42.754Z,100054.91
2022-09-06T21:37:10.829Z,100059.03
2022-09-06T21:39:43.956Z,100067.72
2022-09-06T21:42:14.462Z,100079.16
2022-09-06T21:44:46.042Z,100070.81
2022-09-06T21:47:14.525Z,100066.03
2022-09-06T21:49:43.951Z,100067.47
2022-09-06T21:52:12.006Z,100068.56
2022-09-06T21:54:40.277Z,100067.63
2022-09-06T21:57:08.399Z,100076.16
2022-09-06T21:59:36.701Z,100077.56
2022-09-06T22:02:05.304Z,100077.25
2022-09-06T22:04:36.298Z,100068.94
2022-09-06T22:07:05.696Z,100062.13
2022-09-06T22:09:33.872Z,100063.41
2022-09-06T22:12:04.962Z,100058.13
2022-09-06T22:14:33.267Z,100059.88
2022-09-06T22:17:01.330Z,100063.84
2022-09-06T22:19:29.617Z,100057.72
2022-09-06T22:21:59.846Z,100063.13
2022-09-06T22:24:29.710Z,100052.53
2022-09-06T22:26:57.765Z,100054.56
2022-09-06T22:29:28.550Z,100053.03
2022-09-06T22:31:58.960Z,100029.50
2022-09-06T22:34:27.067Z,100020.53
2022-09-06T22:36:55.108Z,100009.91
2022-09-06T22:39:23.629Z,100018.91
2022-09-06T22:41:53.589Z,100032.41
2022-09-06T22:44:26.398Z,100033.28
2022-09-06T22:46:57.366Z,100038.34
2022-09-06T22:49:25.645Z,100033.09
2022-09-06T22:51:54.355Z,100030.28
2022-09-06T22:54:25.320Z,100025.94
2022-09-06T22:56:55.019Z,100017.19
2022-09-06T22:59:23.722Z,100015.59
2022-09-06T23:01:53.962Z,100011.16
2022-09-06T23:04:22.092Z,100009.44
2022-09-06T23:06:50.447Z,100014.72
2022-09-06T23:09:20.578Z,100011.06
2022-09-06T23:13:43.782Z,99994.66
2022-09-06T23:16:13.808Z,100008.03
2022-09-06T23:18:41.980Z,99998.00
2022-09-06T23:21:12.199Z,100004.25
2022-09-06T23:23:41.507Z,99997.66
2022-09-06T23:26:11.760Z,100010.84
2022-09-06T23:28:44.160Z,100013.84
2022-09-06T23:31:14.082Z,99995.50
2022-09-06T23:33:42.768Z,100003.25
2022-09-06T23:36:14.753Z,100003.69
2022-09-06T23:38:44.654Z,100011.59
2022-09-06T23:41:13.317Z,100014.19
2022-09-06T23:43:44.518Z,100017.66
2022-09-06T23:46:14.559Z,100010.53
2022-09-06T23:48:45.953Z,100012.88
2022-09-06T23:51:14.235Z,100015.16
2022-09-06T23:53:42.574Z,100011.16
2022-09-06T23:56:10.920Z,100018.69
2022-09-06T23:58:39.507Z,100025.78
